Time;durP1;ratioP1;P1;durP2;ratioP2;P2;SDS_P1;SDS_P2;PMS_P1;PMS_P2;Temp;Humidity;BMP_temperature;BMP_pressure;BME280_temperature;BME280_humidity;BME280_pressure;Samples;Min_cycle;Max_cycle;Signal;HPM_P1;HPM_P2
2022/04/18 00:00:19;;;;;;;4.43;4.03;;;;;;;;;;6165170;23;20009;-77
2022/04/18 00:02:47;;;;;;;3.00;2.80;;;;;;;;;;6182873;23;20032;-77
2022/04/18 00:05:15;;;;;;;4.30;4.00;;;;;;;;;;6189545;23;20021;-78
2022/04/18 00:07:43;;;;;;;5.20;4.60;;;;;;;;;;6190183;23;20349;-77
2022/04/18 00:10:11;;;;;;;4.05;3.75;;;;;;;;;;6159343;23;20031;-77
2022/04/18 00:12:39;;;;;;;3.38;3.15;;;;;;;;;;6188816;23;20329;-77
2022/04/18 00:15:07;;;;;;;3.83;3.45;;;;;;;;;;6155473;23;20021;-77
2022/04/18 00:17:35;;;;;;;3.17;2.92;;;;;;;;;;6161620;23;20032;-77
2022/04/18 00:20:04;;;;;;;3.63;3.33;;;;;;;;;;6190930;23;20012;-77
2022/04/18 00:22:32;;;;;;;5.95;3.30;;;;;;;;;;6153718;23;20353;-77
2022/04/18 00:25:00;;;;;;;3.88;3.58;;;;;;;;;;6190602;23;20827;-77
2022/04/18 00:27:28;;;;;;;3.58;3.05;;;;;;;;;;6129169;23;20028;-77
2022/04/18 00:29:56;;;;;;;4.30;3.83;;;;;;;;;;6186091;23;20028;-77
2022/04/18 00:32:24;;;;;;;3.38;3.17;;;;;;;;;;6164407;23;20040;-77
2022/04/18 00:34:54;;;;;;;3.88;3.60;;;;;;;;;;6156344;23;20048;-77
2022/04/18 00:37:22;;;;;;;3.92;3.53;;;;;;;;;;6162722;23;20028;-77
2022/04/18 00:39:50;;;;;;;4.90;4.38;;;;;;;;;;6189939;23;20009;-77
2022/04/18 00:42:18;;;;;;;4.00;3.60;;;;;;;;;;6158439;23;20021;-77
2022/04/18 00:44:46;;;;;;;3.53;3.33;;;;;;;;;;6190865;23;20023;-77
2022/04/18 00:47:14;;;;;;;5.78;4.07;;;;;;;;;;6153914;23;20036;-77
2022/04/18 00:49:42;;;;;;;3.13;2.92;;;;;;;;;;6186479;23;20036;-77
2022/04/18 00:52:10;;;;;;;5.80;4.50;;;;;;;;;;6190988;23;20550;-76
2022/04/18 00:54:39;;;;;;;4.50;4.10;;;;;;;;;;6126632;23;20025;-77
2022/04/18 00:57:07;;;;;;;5.85;3.28;;;;;;;;;;6158321;23;20348;-77
2022/04/18 00:59:38;;;;;;;5.75;3.92;;;;;;;;;;6159237;23;20017;-77
2022/04/18 01:02:06;;;;;;;4.97;4.65;;;;;;;;;;6150475;23;20025;-77
2022/04/18 01:04:34;;;;;;;3.67;3.30;;;;;;;;;;6158952;23;20036;-77
2022/04/18 01:07:02;;;;;;;4.63;4.18;;;;;;;;;;6150470;23;20025;-77
2022/04/18 01:09:30;;;;;;;6.07;4.28;;;;;;;;;;6154348;23;20022;-77
2022/04/18 01:11:59;;;;;;;6.28;4.18;;;;;;;;;;6159279;23;20017;-77
2022/04/18 01:14:27;;;;;;;7.15;4.55;;;;;;;;;;6150050;23;20027;-76
2022/04/18 01:17:23;;;;;;;4.53;4.22;;;;;;;;;;6148824;23;20025;-76
2022/04/18 01:20:11;;;;;;;4.25;3.85;;;;;;;;;;6159177;23;20025;-77
2022/04/18 01:23:01;;;;;;;8.10;3.47;;;;;;;;;;6150413;23;20029;-76
2022/04/18 01:29:01;;;;;;;3.90;3.60;;;;;;;;;;6160749;23;20333;-76
2022/04/18 01:31:36;;;;;;;4.15;3.90;;;;;;;;;;6148310;23;20021;-76
2022/04/18 01:34:05;;;;;;;4.80;3.30;;;;;;;;;;6155884;23;20028;-76
2022/04/18 01:36:33;;;;;;;8.65;4.05;;;;;;;;;;6156656;23;20017;-76
2022/04/18 01:39:05;;;;;;;5.13;4.32;;;;;;;;;;6124661;23;20026;-77
2022/04/18 01:41:34;;;;;;;4.75;4.25;;;;;;;;;;6160020;23;20022;-77
2022/04/18 01:44:02;;;;;;;5.75;4.47;;;;;;;;;;6151112;23;20018;-76
2022/04/18 01:46:30;;;;;;;4.43;3.88;;;;;;;;;;6154583;23;20365;-76
2022/04/18 01:48:58;;;;;;;4.65;4.25;;;;;;;;;;6125108;23;20024;-76
2022/04/18 01:51:26;;;;;;;4.80;3.72;;;;;;;;;;6150556;23;20033;-76
2022/04/18 01:54:04;;;;;;;3.83;3.53;;;;;;;;;;6155535;23;20021;-76
2022/04/18 01:56:32;;;;;;;4.90;3.83;;;;;;;;;;6150348;23;20018;-76
2022/04/18 01:59:01;;;;;;;4.82;4.43;;;;;;;;;;6151007;23;20032;-77
2022/04/18 02:01:30;;;;;;;3.83;3.53;;;;;;;;;;6125234;23;20021;-76
2022/04/18 02:03:58;;;;;;;4.00;3.58;;;;;;;;;;6160486;23;20013;-76
2022/04/18 02:06:27;;;;;;;4.47;4.07;;;;;;;;;;6154731;23;20496;-76
2022/04/18 02:08:55;;;;;;;4.82;4.03;;;;;;;;;;6161196;23;20016;-76
2022/04/18 02:11:25;;;;;;;5.07;4.18;;;;;;;;;;6150816;23;20025;-76
2022/04/18 02:13:55;;;;;;;5.55;5.03;;;;;;;;;;6158140;23;20032;-76
2022/04/18 02:16:24;;;;;;;4.70;3.53;;;;;;;;;;6185822;23;20013;-76
2022/04/18 02:18:54;;;;;;;4.47;4.10;;;;;;;;;;6151690;23;20319;-76
2022/04/18 02:21:23;;;;;;;5.25;4.45;;;;;;;;;;6125476;23;20013;-76
2022/04/18 02:23:51;;;;;;;5.03;4.72;;;;;;;;;;6159983;23;20024;-79
2022/04/18 02:26:19;;;;;;;6.00;4.80;;;;;;;;;;6157169;23;20025;-78
2022/04/18 02:28:56;;;;;;;3.90;3.60;;;;;;;;;;6162545;23;20706;-75
2022/04/18 02:31:24;;;;;;;4.47;4.07;;;;;;;;;;6125580;23;20033;-75
2022/04/18 02:33:52;;;;;;;4.00;3.60;;;;;;;;;;6151823;23;20013;-75
2022/04/18 02:36:22;;;;;;;4.53;4.13;;;;;;;;;;6160627;23;20021;-75
2022/04/18 02:39:16;;;;;;;8.05;4.72;;;;;;;;;;6151742;23;20704;-75
2022/04/18 02:42:44;;;;;;;4.72;4.30;;;;;;;;;;6155041;23;20018;-75
2022/04/18 02:46:13;;;;;;;5.45;4.07;;;;;;;;;;6157122;23;20381;-75
2022/04/18 02:49:39;;;;;;;4.88;4.47;;;;;;;;;;6158079;23;20467;-75
2022/04/18 02:53:15;;;;;;;5.50;3.70;;;;;;;;;;6140639;23;20017;-75
2022/04/18 02:56:38;;;;;;;3.92;3.63;;;;;;;;;;6159570;23;20030;-75
2022/04/18 02:59:41;;;;;;;5.18;4.68;;;;;;;;;;6134301;23;20033;-75
2022/04/18 03:02:09;;;;;;;4.45;4.05;;;;;;;;;;6180052;23;20345;-75
2022/04/18 03:04:37;;;;;;;6.68;6.03;;;;;;;;;;6159971;23;20013;-75
2022/04/18 03:07:05;;;;;;;7.35;6.47;;;;;;;;;;6127364;23;20029;-75
2022/04/18 03:09:33;;;;;;;4.95;4.55;;;;;;;;;;6156496;23;20018;-75
2022/04/18 03:12:02;;;;;;;4.40;4.05;;;;;;;;;;6160481;23;20549;-75
2022/04/18 03:14:30;;;;;;;7.88;5.47;;;;;;;;;;6153296;23;20036;-75
2022/04/18 03:17:00;;;;;;;8.32;5.13;;;;;;;;;;6160248;23;20441;-75
2022/04/18 03:19:30;;;;;;;6.70;6.05;;;;;;;;;;6124914;23;20070;-75
2022/04/18 03:21:59;;;;;;;6.75;6.28;;;;;;;;;;6156058;23;20024;-75
2022/04/18 03:24:31;;;;;;;6.28;5.45;;;;;;;;;;6159618;23;20429;-75
2022/04/18 03:27:21;;;;;;;10.13;5.43;;;;;;;;;;6175295;23;20032;-75
2022/04/18 03:29:50;;;;;;;6.25;5.05;;;;;;;;;;6156339;23;20021;-75
2022/04/18 03:32:24;;;;;;;6.05;5.60;;;;;;;;;;6159906;23;20316;-75
2022/04/18 03:34:52;;;;;;;6.80;4.75;;;;;;;;;;6151933;23;20310;-75
2022/04/18 03:40:07;;;;;;;5.10;4.45;;;;;;;;;;6149828;23;20521;-75
2022/04/18 03:42:36;;;;;;;4.25;4.05;;;;;;;;;;6124979;23;20025;-75
2022/04/18 03:45:07;;;;;;;5.57;4.15;;;;;;;;;;6159093;23;20018;-76
2022/04/18 03:47:35;;;;;;;5.85;5.07;;;;;;;;;;6125306;23;20018;-75
2022/04/18 03:50:05;;;;;;;8.00;5.43;;;;;;;;;;6154853;23;20760;-75
2022/04/18 03:52:37;;;;;;;6.20;5.22;;;;;;;;;;6159986;23;20029;-75
2022/04/18 03:55:16;;;;;;;5.20;4.70;;;;;;;;;;6154955;23;20033;-75
2022/04/18 03:57:45;;;;;;;5.65;5.15;;;;;;;;;;6161024;23;20043;-75
2022/04/18 04:00:14;;;;;;;4.00;3.67;;;;;;;;;;6164292;23;20020;-75
2022/04/18 04:02:47;;;;;;;8.30;4.13;;;;;;;;;;6183112;23;20029;-75
2022/04/18 04:05:21;;;;;;;10.10;4.68;;;;;;;;;;6162952;23;20761;-75
2022/04/18 04:07:52;;;;;;;6.33;5.67;;;;;;;;;;6105394;23;20020;-75
2022/04/18 04:10:33;;;;;;;9.30;5.55;;;;;;;;;;6184216;23;20025;-75
2022/04/18 04:13:03;;;;;;;6.68;6.07;;;;;;;;;;6164890;23;20408;-75
2022/04/18 04:15:50;;;;;;;7.97;6.18;;;;;;;;;;6140420;23;20025;-75
2022/04/18 04:18:23;;;;;;;5.65;5.13;;;;;;;;;;6134825;23;20024;-75
2022/04/18 04:20:54;;;;;;;6.72;6.05;;;;;;;;;;6164432;23;20013;-75
2022/04/18 04:23:22;;;;;;;6.57;5.90;;;;;;;;;;6153512;23;20037;-75
2022/04/18 04:26:30;;;;;;;5.50;4.82;;;;;;;;;;6129530;23;20048;-75
2022/04/18 04:28:59;;;;;;;5.97;5.47;;;;;;;;;;6129796;23;20021;-75
2022/04/18 04:31:46;;;;;;;5.43;4.50;;;;;;;;;;6163930;23;20033;-75
2022/04/18 04:34:41;;;;;;;4.63;4.22;;;;;;;;;;6159021;23;20057;-75
2022/04/18 04:37:35;;;;;;;5.97;5.43;;;;;;;;;;6161092;23;20509;-75
2022/04/18 04:40:36;;;;;;;5.97;5.05;;;;;;;;;;6180844;23;20353;-75
2022/04/18 04:43:06;;;;;;;5.97;5.43;;;;;;;;;;6155621;23;20029;-75
2022/04/18 04:45:38;;;;;;;5.35;4.82;;;;;;;;;;6161768;23;20259;-75
2022/04/18 04:48:25;;;;;;;12.93;5.00;;;;;;;;;;6163647;23;20020;-75
2022/04/18 04:50:57;;;;;;;3.92;3.63;;;;;;;;;;6156121;23;20025;-75
2022/04/18 04:53:26;;;;;;;8.48;4.90;;;;;;;;;;6161200;23;20025;-75
2022/04/18 04:55:56;;;;;;;7.32;6.60;;;;;;;;;;6164493;23;20028;-75
2022/04/18 04:58:24;;;;;;;6.75;4.93;;;;;;;;;;6158143;23;20029;-75
2022/04/18 05:00:56;;;;;;;4.90;4.53;;;;;;;;;;6140530;23;20016;-75
2022/04/18 05:03:59;;;;;;;4.85;4.35;;;;;;;;;;6131471;23;20036;-75
2022/04/18 05:06:27;;;;;;;7.65;6.95;;;;;;;;;;6157825;23;20095;-75
2022/04/18 05:08:57;;;;;;;6.70;5.07;;;;;;;;;;6162717;23;20009;-75
2022/04/18 05:11:26;;;;;;;8.45;4.43;;;;;;;;;;6179949;23;20024;-75
2022/04/18 05:13:56;;;;;;;5.28;4.82;;;;;;;;;;6160259;23;20017;-75
2022/04/18 05:16:37;;;;;;;7.40;5.45;;;;;;;;;;6163976;23;20035;-75
2022/04/18 05:19:23;;;;;;;6.18;4.57;;;;;;;;;;6152770;23;20348;-75
2022/04/18 05:22:03;;;;;;;5.38;3.67;;;;;;;;;;6159822;23;20456;-75
2022/04/18 05:24:35;;;;;;;4.45;4.03;;;;;;;;;;6163668;23;20013;-75
2022/04/18 05:27:05;;;;;;;6.13;4.55;;;;;;;;;;6155149;23;20029;-75
2022/04/18 05:29:34;;;;;;;8.75;5.53;;;;;;;;;;6137267;23;20021;-75
2022/04/18 05:32:02;;;;;;;6.05;4.45;;;;;;;;;;6163845;23;20028;-75
2022/04/18 05:34:35;;;;;;;4.68;4.25;;;;;;;;;;6152886;23;20060;-75
2022/04/18 05:37:16;;;;;;;4.53;4.22;;;;;;;;;;6162758;23;20122;-75
2022/04/18 05:40:05;;;;;;;8.20;5.07;;;;;;;;;;6163678;23;20024;-75
2022/04/18 05:42:36;;;;;;;6.95;4.55;;;;;;;;;;6157131;23;20710;-75
2022/04/18 05:45:11;;;;;;;4.57;3.63;;;;;;;;;;6162929;23;20021;-78
2022/04/18 05:47:42;;;;;;;6.60;3.80;;;;;;;;;;6164521;23;20021;-77
2022/04/18 05:50:10;;;;;;;5.13;4.57;;;;;;;;;;6185116;23;20563;-76
2022/04/18 05:52:50;;;;;;;8.05;3.50;;;;;;;;;;6163247;23;20025;-76
2022/04/18 05:55:38;;;;;;;4.32;3.95;;;;;;;;;;6162012;23;20028;-76
2022/04/18 05:58:20;;;;;;;3.55;3.25;;;;;;;;;;6153170;23;20032;-76
2022/04/18 06:00:48;;;;;;;6.38;4.53;;;;;;;;;;6129526;23;20032;-74
2022/04/18 06:03:17;;;;;;;4.53;3.75;;;;;;;;;;6127966;23;20036;-74
2022/04/18 06:05:45;;;;;;;5.95;3.92;;;;;;;;;;6160877;23;20353;-75
2022/04/18 06:08:19;;;;;;;3.45;3.25;;;;;;;;;;6162540;23;20712;-74
2022/04/18 06:10:58;;;;;;;6.00;4.07;;;;;;;;;;6155980;23;20476;-75
2022/04/18 06:13:49;;;;;;;3.77;3.47;;;;;;;;;;6164976;23;20017;-75
2022/04/18 06:16:18;;;;;;;5.03;4.15;;;;;;;;;;6129443;23;20024;-75
2022/04/18 06:18:48;;;;;;;4.47;3.05;;;;;;;;;;6155644;23;20025;-75
2022/04/18 06:21:16;;;;;;;3.63;3.25;;;;;;;;;;6162702;23;20021;-75
2022/04/18 06:23:46;;;;;;;4.93;3.72;;;;;;;;;;6165146;23;20024;-75
2022/04/18 06:26:33;;;;;;;4.15;3.75;;;;;;;;;;6185092;23;20029;-75
2022/04/18 06:29:03;;;;;;;4.60;4.03;;;;;;;;;;6165538;23;20021;-75
2022/04/18 06:31:32;;;;;;;5.15;3.70;;;;;;;;;;6130216;23;20024;-75
2022/04/18 06:34:02;;;;;;;8.23;3.97;;;;;;;;;;6160691;23;20032;-75
2022/04/18 06:36:32;;;;;;;4.65;4.25;;;;;;;;;;6141416;23;20244;-75
2022/04/18 06:39:20;;;;;;;4.22;3.90;;;;;;;;;;6164212;23;20487;-75
2022/04/18 06:41:52;;;;;;;3.30;3.08;;;;;;;;;;6161915;23;20036;-75
2022/04/18 06:44:25;;;;;;;3.55;3.20;;;;;;;;;;6165399;23;20028;-75
2022/04/18 06:46:57;;;;;;;3.92;3.63;;;;;;;;;;6156933;23;20608;-75
2022/04/18 06:49:48;;;;;;;4.15;3.85;;;;;;;;;;6179147;23;20024;-75
2022/04/18 06:52:41;;;;;;;5.15;3.80;;;;;;;;;;6191352;23;20020;-75
2022/04/18 06:56:58;;;;;;;4.78;4.07;;;;;;;;;;6180872;23;20028;-75
2022/04/18 06:58:17;;;;;;;5.00;3.97;;;;;;;;;;6159587;23;20043;-75
2022/04/18 07:00:46;;;;;;;3.63;3.28;;;;;;;;;;6165995;23;20013;-75
2022/04/18 07:03:16;;;;;;;3.25;2.95;;;;;;;;;;6129733;23;20029;-75
2022/04/18 07:05:44;;;;;;;3.42;3.00;;;;;;;;;;6129799;23;20021;-75
2022/04/18 07:08:12;;;;;;;4.85;3.58;;;;;;;;;;6190437;23;20020;-75
2022/04/18 07:10:41;;;;;;;4.72;3.95;;;;;;;;;;6157921;23;20507;-75
2022/04/18 07:13:11;;;;;;;4.82;3.70;;;;;;;;;;6162891;23;20017;-75
2022/04/18 07:15:40;;;;;;;3.40;3.13;;;;;;;;;;6163189;23;20025;-75
2022/04/18 07:18:10;;;;;;;3.38;2.58;;;;;;;;;;6155787;23;20025;-75
2022/04/18 07:20:41;;;;;;;3.60;3.40;;;;;;;;;;6162210;23;20365;-75
2022/04/18 07:23:14;;;;;;;3.42;3.13;;;;;;;;;;6152383;23;20887;-75
2022/04/18 07:25:54;;;;;;;5.78;4.55;;;;;;;;;;6158355;23;20208;-75
2022/04/18 07:28:27;;;;;;;6.40;3.45;;;;;;;;;;6164503;23;20016;-75
2022/04/18 07:30:56;;;;;;;4.03;3.58;;;;;;;;;;6156749;23;20025;-75
2022/04/18 07:33:24;;;;;;;3.53;3.10;;;;;;;;;;6161763;23;20016;-75
2022/04/18 07:35:52;;;;;;;4.80;4.38;;;;;;;;;;6164809;23;20014;-75
2022/04/18 07:41:07;;;;;;;4.60;3.05;;;;;;;;;;6163706;23;20013;-76
2022/04/18 07:43:41;;;;;;;6.05;2.42;;;;;;;;;;6162276;23;20032;-74
2022/04/18 07:46:12;;;;;;;4.20;2.88;;;;;;;;;;6159310;23;20029;-74
2022/04/18 07:48:41;;;;;;;2.28;2.13;;;;;;;;;;6162987;23;20445;-74
2022/04/18 07:53:57;;;;;;;2.40;2.20;;;;;;;;;;6154774;23;20435;-75
2022/04/18 07:56:26;;;;;;;9.13;2.45;;;;;;;;;;6158061;23;20010;-75
2022/04/18 07:58:54;;;;;;;2.45;2.25;;;;;;;;;;6146693;23;20025;-74
2022/04/18 08:01:37;;;;;;;3.03;2.78;;;;;;;;;;6153853;23;20109;-75
2022/04/18 08:04:05;;;;;;;2.25;2.15;;;;;;;;;;6156765;23;20021;-80
2022/04/18 08:06:37;;;;;;;4.88;2.38;;;;;;;;;;6152361;23;20439;-76
2022/04/18 08:09:17;;;;;;;1.63;1.52;;;;;;;;;;6156628;23;20025;-74
2022/04/18 08:11:45;;;;;;;2.47;2.28;;;;;;;;;;6159308;23;20018;-74
2022/04/18 08:14:18;;;;;;;3.10;2.70;;;;;;;;;;6150788;23;20032;-75
2022/04/18 08:17:04;;;;;;;2.97;2.78;;;;;;;;;;6159731;23;20017;-76
2022/04/18 08:19:40;;;;;;;2.10;2.00;;;;;;;;;;6128231;23;20025;-76
2022/04/18 08:26:54;;;;;;;2.30;2.10;;;;;;;;;;6147296;23;20028;-80
2022/04/18 08:29:35;;;;;;;2.05;1.70;;;;;;;;;;6125980;23;20022;-80
2022/04/18 08:32:18;;;;;;;4.50;2.08;;;;;;;;;;6121405;23;20432;-81
2022/04/18 08:34:46;;;;;;;6.95;3.20;;;;;;;;;;6148611;23;20025;-79
2022/04/18 08:37:19;;;;;;;4.13;3.10;;;;;;;;;;6119430;23;20025;-80
2022/04/18 08:40:07;;;;;;;3.78;1.85;;;;;;;;;;6123827;23;20043;-78
2022/04/18 08:42:37;;;;;;;7.93;2.45;;;;;;;;;;6095591;23;20028;-80
2022/04/18 08:45:10;;;;;;;5.35;2.38;;;;;;;;;;6130976;23;20020;-82
2022/04/18 08:56:30;;;;;;;3.45;2.33;;;;;;;;;;6148126;23;20024;-83
2022/04/18 08:59:00;;;;;;;2.40;1.70;;;;;;;;;;6125316;23;20029;-83
2022/04/18 09:01:28;;;;;;;2.50;2.35;;;;;;;;;;6159322;23;20428;-82
2022/04/18 09:03:58;;;;;;;4.53;2.55;;;;;;;;;;6161020;23;20036;-84
2022/04/18 09:07:07;;;;;;;2.05;1.95;;;;;;;;;;6154857;23;20353;-84
2022/04/18 09:09:38;;;;;;;3.87;2.77;;;;;;;;;;6157530;23;20592;-81
2022/04/18 09:12:19;;;;;;;3.13;2.47;;;;;;;;;;6102912;23;20388;-82
2022/04/18 09:15:13;;;;;;;3.90;2.67;;;;;;;;;;6150323;23;20024;-83
2022/04/18 09:17:47;;;;;;;2.17;1.98;;;;;;;;;;6102255;23;20548;-82
2022/04/18 09:20:46;;;;;;;1.50;1.40;;;;;;;;;;6106898;23;20469;-83
2022/04/18 09:23:23;;;;;;;2.08;1.88;;;;;;;;;;6124965;23;20021;-83
2022/04/18 09:26:04;;;;;;;3.85;2.40;;;;;;;;;;6102613;23;20445;-84
2022/04/18 09:28:33;;;;;;;2.08;1.88;;;;;;;;;;6125732;23;20360;-84
2022/04/18 09:31:05;;;;;;;1.88;1.63;;;;;;;;;;6101654;23;20033;-82
2022/04/18 09:33:38;;;;;;;2.35;1.95;;;;;;;;;;6100591;23;20021;-86
2022/04/18 09:36:12;;;;;;;2.17;1.88;;;;;;;;;;6137445;23;20028;-82
2022/04/18 09:38:44;;;;;;;2.65;1.88;;;;;;;;;;6153050;23;20047;-84
2022/04/18 09:41:16;;;;;;;3.78;1.70;;;;;;;;;;6126690;23;20433;-85
2022/04/18 09:43:46;;;;;;;2.45;1.70;;;;;;;;;;6186084;23;20048;-82
2022/04/18 09:46:24;;;;;;;2.55;1.60;;;;;;;;;;6150078;23;20759;-79
2022/04/18 09:49:03;;;;;;;2.22;1.95;;;;;;;;;;6185138;23;20017;-78
2022/04/18 09:51:38;;;;;;;1.88;1.70;;;;;;;;;;6174986;23;20047;-80
2022/04/18 09:54:14;;;;;;;1.70;1.60;;;;;;;;;;6149079;23;20733;-79
2022/04/18 09:56:48;;;;;;;3.05;2.40;;;;;;;;;;6161627;23;20024;-80
2022/04/18 09:59:16;;;;;;;1.42;1.33;;;;;;;;;;6152704;23;20472;-80
2022/04/18 10:01:45;;;;;;;5.10;2.72;;;;;;;;;;6152106;23;20024;-79
2022/04/18 10:04:13;;;;;;;6.63;3.33;;;;;;;;;;6162536;23;20020;-81
2022/04/18 10:06:44;;;;;;;4.43;2.00;;;;;;;;;;6127536;23;20028;-78
2022/04/18 10:09:13;;;;;;;4.00;2.00;;;;;;;;;;6160213;23;20025;-80
2022/04/18 10:11:41;;;;;;;2.70;2.47;;;;;;;;;;6188978;23;20028;-80
2022/04/18 10:14:10;;;;;;;1.88;1.77;;;;;;;;;;6184034;23;20025;-78
2022/04/18 10:16:39;;;;;;;2.13;1.92;;;;;;;;;;6189260;23;20523;-81
2022/04/18 10:19:13;;;;;;;1.58;1.42;;;;;;;;;;6153024;23;20029;-81
2022/04/18 10:21:44;;;;;;;2.78;2.58;;;;;;;;;;6159501;23;20025;-77
2022/04/18 10:24:26;;;;;;;3.80;3.50;;;;;;;;;;6187778;23;20016;-80
2022/04/18 10:27:06;;;;;;;4.40;2.47;;;;;;;;;;6180643;23;20021;-78
2022/04/18 10:29:41;;;;;;;1.67;1.58;;;;;;;;;;6185937;23;20032;-82
2022/04/18 10:32:10;;;;;;;1.63;1.52;;;;;;;;;;6162319;23;20479;-80
2022/04/18 10:34:42;;;;;;;1.40;1.30;;;;;;;;;;6181455;23;20025;-80
2022/04/18 10:37:24;;;;;;;1.95;1.48;;;;;;;;;;6188326;23;20055;-77
2022/04/18 10:40:23;;;;;;;2.10;1.90;;;;;;;;;;6163142;23;20028;-80
2022/04/18 10:42:51;;;;;;;3.03;2.10;;;;;;;;;;6180360;23;20456;-81
2022/04/18 10:45:28;;;;;;;1.55;1.27;;;;;;;;;;6186505;23;20013;-79
2022/04/18 10:48:08;;;;;;;1.60;1.27;;;;;;;;;;6178434;23;20013;-82
2022/04/18 10:50:50;;;;;;;2.85;1.25;;;;;;;;;;6178165;23;20032;-81
2022/04/18 10:53:26;;;;;;;1.33;1.23;;;;;;;;;;6181158;23;20803;-85
2022/04/18 10:55:57;;;;;;;1.52;1.42;;;;;;;;;;6180413;23;20708;-80
2022/04/18 10:58:34;;;;;;;2.95;1.80;;;;;;;;;;6155681;23;20353;-81
2022/04/18 11:01:07;;;;;;;2.25;2.05;;;;;;;;;;6188942;23;20440;-82
2022/04/18 11:03:46;;;;;;;2.97;2.17;;;;;;;;;;6177308;23;20100;-88
2022/04/18 11:06:18;;;;;;;2.42;1.17;;;;;;;;;;6183594;23;20469;-81
2022/04/18 11:08:59;;;;;;;1.45;1.35;;;;;;;;;;6159848;23;20017;-80
2022/04/18 11:11:54;;;;;;;3.60;1.58;;;;;;;;;;6177624;23;20024;-82
2022/04/18 11:15:15;;;;;;;1.60;1.50;;;;;;;;;;6161702;23;20369;-81
2022/04/18 11:18:42;;;;;;;1.85;1.63;;;;;;;;;;6182099;23;20416;-85
2022/04/18 11:22:01;;;;;;;1.63;1.50;;;;;;;;;;6184614;23;20032;-87
2022/04/18 11:25:25;;;;;;;2.25;2.05;;;;;;;;;;6163248;23;20017;-84
2022/04/18 11:28:49;;;;;;;2.28;2.00;;;;;;;;;;6145254;23;20502;-82
2022/04/18 11:32:03;;;;;;;2.75;1.85;;;;;;;;;;6080024;23;20436;-83
2022/04/18 11:34:47;;;;;;;1.38;1.27;;;;;;;;;;6176176;23;20025;-79
2022/04/18 11:37:23;;;;;;;1.67;1.40;;;;;;;;;;6186408;23;20024;-84
2022/04/18 11:39:52;;;;;;;1.95;1.83;;;;;;;;;;6161453;23;20021;-83
2022/04/18 11:42:22;;;;;;;2.22;2.03;;;;;;;;;;6156478;23;20032;-83
2022/04/18 11:44:52;;;;;;;2.78;1.90;;;;;;;;;;6162505;23;20021;-84
2022/04/18 11:47:22;;;;;;;1.75;1.65;;;;;;;;;;6152812;23;20524;-83
2022/04/18 11:50:01;;;;;;;1.65;1.20;;;;;;;;;;6157882;23;20040;-82
2022/04/18 11:52:31;;;;;;;1.15;1.15;;;;;;;;;;6162085;23;20423;-82
2022/04/18 11:55:04;;;;;;;1.65;1.35;;;;;;;;;;6179735;23;20029;-83
2022/04/18 11:57:35;;;;;;;2.50;2.22;;;;;;;;;;6151132;23;20024;-84
2022/04/18 12:00:06;;;;;;;2.28;2.08;;;;;;;;;;6178163;23;20024;-84
2022/04/18 12:08:21;;;;;;;1.58;1.48;;;;;;;;;;6150475;23;20017;-83
2022/04/18 12:10:53;;;;;;;2.03;1.92;;;;;;;;;;6102244;23;20378;-83
2022/04/18 12:13:23;;;;;;;1.77;1.35;;;;;;;;;;6160869;23;20028;-84
2022/04/18 12:15:53;;;;;;;1.08;1.00;;;;;;;;;;6127896;23;20337;-83
2022/04/18 12:18:26;;;;;;;1.20;1.10;;;;;;;;;;6126217;23;20032;-83
2022/04/18 12:20:55;;;;;;;2.45;2.35;;;;;;;;;;6126821;23;20017;-83
2022/04/18 12:23:26;;;;;;;2.03;1.63;;;;;;;;;;6176968;23;20052;-84
2022/04/18 12:25:57;;;;;;;1.60;1.50;;;;;;;;;;6152001;23;20017;-81
2022/04/18 12:28:28;;;;;;;1.58;1.30;;;;;;;;;;6177798;23;20017;-85
2022/04/18 12:31:00;;;;;;;1.27;1.27;;;;;;;;;;6127123;23;20028;-84
2022/04/18 12:33:30;;;;;;;1.90;1.80;;;;;;;;;;6176836;23;20024;-81
2022/04/18 12:36:00;;;;;;;3.20;2.40;;;;;;;;;;6162139;23;20037;-84
2022/04/18 12:38:32;;;;;;;1.77;1.65;;;;;;;;;;6149801;23;20025;-83
2022/04/18 12:41:02;;;;;;;1.63;1.52;;;;;;;;;;6151217;23;20020;-83
2022/04/18 12:43:37;;;;;;;2.20;1.75;;;;;;;;;;6150536;23;20031;-84
2022/04/18 12:46:12;;;;;;;2.08;1.83;;;;;;;;;;6177092;23;20344;-85
2022/04/18 12:48:51;;;;;;;2.80;2.47;;;;;;;;;;6151128;23;20044;-84
2022/04/18 12:51:30;;;;;;;2.83;1.20;;;;;;;;;;6102374;23;20021;-84
2022/04/18 12:54:00;;;;;;;1.70;1.60;;;;;;;;;;6126022;23;20032;-84
2022/04/18 12:56:30;;;;;;;1.48;1.38;;;;;;;;;;6126796;23;20449;-84
2022/04/18 12:59:03;;;;;;;2.08;1.88;;;;;;;;;;6101175;23;20036;-83
2022/04/18 13:01:34;;;;;;;1.63;1.40;;;;;;;;;;6151194;23;20032;-84
2022/04/18 13:04:05;;;;;;;2.33;1.50;;;;;;;;;;6102426;23;20017;-78
2022/04/18 13:06:36;;;;;;;2.10;2.00;;;;;;;;;;6178185;23;20031;-86
2022/04/18 13:09:07;;;;;;;1.35;1.25;;;;;;;;;;6126193;23;20021;-85
2022/04/18 13:11:44;;;;;;;2.47;2.10;;;;;;;;;;6176826;23;20025;-86
2022/04/18 13:14:18;;;;;;;1.58;1.48;;;;;;;;;;6151536;23;20457;-84
2022/04/18 13:16:49;;;;;;;1.88;1.38;;;;;;;;;;6178513;23;20013;-85
2022/04/18 13:19:19;;;;;;;1.70;1.20;;;;;;;;;;6100595;23;20548;-85
2022/04/18 13:21:52;;;;;;;1.58;1.48;;;;;;;;;;6127086;23;20253;-73
2022/04/18 13:24:21;;;;;;;2.15;1.35;;;;;;;;;;6176173;23;20032;-73
2022/04/18 13:26:51;;;;;;;1.50;1.40;;;;;;;;;;6178904;23;20029;-72
2022/04/18 13:29:21;;;;;;;4.32;1.48;;;;;;;;;;6150285;23;20427;-72
2022/04/18 13:31:52;;;;;;;1.27;1.17;;;;;;;;;;6178991;23;20017;-86
2022/04/18 13:34:22;;;;;;;;;;;;;;;;;;6154294;23;20024;-84
2022/04/18 13:36:51;;;;;;;2.05;1.27;;;;;;;;;;6153463;23;19920;-84
2022/04/18 13:39:35;;;;;;;1.40;1.30;;;;;;;;;;6127648;23;20025;-86
2022/04/18 13:42:11;;;;;;;4.00;1.83;;;;;;;;;;6179894;23;20025;-85
2022/04/18 13:44:43;;;;;;;3.55;3.25;;;;;;;;;;6180767;23;20017;-85
2022/04/18 13:47:16;;;;;;;1.95;1.85;;;;;;;;;;6178887;23;20025;-85
2022/04/18 13:49:54;;;;;;;2.17;1.42;;;;;;;;;;6178841;23;20025;-85
2022/04/18 13:52:23;;;;;;;2.15;1.15;;;;;;;;;;6154168;23;20025;-85
2022/04/18 13:54:55;;;;;;;1.77;1.15;;;;;;;;;;6128537;23;20028;-86
2022/04/18 13:57:27;;;;;;;0.85;0.85;;;;;;;;;;6153080;23;20025;-86
2022/04/18 13:59:57;;;;;;;0.70;0.70;;;;;;;;;;6153190;23;20369;-83
2022/04/18 14:02:28;;;;;;;4.03;1.65;;;;;;;;;;6152465;23;20017;-87
2022/04/18 14:04:58;;;;;;;2.45;2.22;;;;;;;;;;6130076;23;20483;-75
2022/04/18 14:07:32;;;;;;;1.33;1.20;;;;;;;;;;6152815;23;20032;-87
2022/04/18 14:10:04;;;;;;;1.52;1.40;;;;;;;;;;6176923;23;20025;-85
2022/04/18 14:12:41;;;;;;;2.35;2.17;;;;;;;;;;6130478;23;20021;-85
2022/04/18 14:20:48;;;;;;;1.98;0.95;;;;;;;;;;6128797;23;20017;-86
2022/04/18 14:23:18;;;;;;;2.47;1.83;;;;;;;;;;6177892;23;20447;-86
2022/04/18 14:25:50;;;;;;;1.85;1.35;;;;;;;;;;6160508;23;20024;-86
2022/04/18 14:28:20;;;;;;;2.08;1.58;;;;;;;;;;6153285;23;20020;-85
2022/04/18 14:30:50;;;;;;;1.35;1.25;;;;;;;;;;6128178;23;20029;-86
2022/04/18 14:33:19;;;;;;;1.13;1.02;;;;;;;;;;6152121;23;20017;-86
2022/04/18 14:35:49;;;;;;;1.63;1.48;;;;;;;;;;6179063;23;20456;-85
2022/04/18 14:38:19;;;;;;;2.47;2.03;;;;;;;;;;6152219;23;20036;-85
2022/04/18 14:40:50;;;;;;;2.80;2.30;;;;;;;;;;6179340;23;20013;-86
2022/04/18 14:43:20;;;;;;;1.23;1.13;;;;;;;;;;6152530;23;20452;-86
2022/04/18 14:45:54;;;;;;;2.13;2.00;;;;;;;;;;6160112;23;20028;-86
2022/04/18 14:48:23;;;;;;;0.98;0.95;;;;;;;;;;6178537;23;20013;-87
2022/04/18 14:50:53;;;;;;;1.17;1.08;;;;;;;;;;6152924;23;20028;-87
2022/04/18 14:53:22;;;;;;;1.70;1.60;;;;;;;;;;6129690;23;20347;-87
2022/04/18 14:55:53;;;;;;;6.57;1.30;;;;;;;;;;6155063;23;20025;-88
2022/04/18 14:58:23;;;;;;;1.60;1.43;;;;;;;;;;6152440;23;20445;-85
2022/04/18 15:01:02;;;;;;;1.30;1.20;;;;;;;;;;6151933;23;20017;-85
2022/04/18 15:03:33;;;;;;;1.00;1.00;;;;;;;;;;6178601;23;20340;-86
2022/04/18 15:06:03;;;;;;;;;;;;;;;;;;6128570;23;20017;-85
2022/04/18 15:08:33;;;;;;;1.75;1.13;;;;;;;;;;6127312;23;19920;-84
2022/04/18 15:11:03;;;;;;;1.63;1.50;;;;;;;;;;6126757;23;20025;-74
2022/04/18 15:13:37;;;;;;;;;;;;;;;;;;6177301;23;20017;-73
2022/04/18 15:16:08;;;;;;;1.70;1.60;;;;;;;;;;6188351;23;19927;-74
2022/04/18 15:18:41;;;;;;;0.93;0.93;;;;;;;;;;6150782;23;20046;-74
2022/04/18 15:21:19;;;;;;;1.10;1.10;;;;;;;;;;6177454;23;20017;-75
2022/04/18 15:23:51;;;;;;;2.38;2.25;;;;;;;;;;6177031;23;20017;-74
2022/04/18 15:26:24;;;;;;;2.40;1.15;;;;;;;;;;6178075;23;20353;-75
2022/04/18 15:28:56;;;;;;;1.33;1.15;;;;;;;;;;6177943;23;20013;-75
2022/04/18 15:34:15;;;;;;;2.33;2.22;;;;;;;;;;6182426;23;20029;-75
2022/04/18 15:36:44;;;;;;;2.78;1.75;;;;;;;;;;6188482;23;20021;-74
2022/04/18 15:39:14;;;;;;;0.90;0.90;;;;;;;;;;6178054;23;20029;-76
2022/04/18 15:41:44;;;;;;;1.95;1.35;;;;;;;;;;6177923;23;20025;-76
2022/04/18 15:44:12;;;;;;;2.38;1.95;;;;;;;;;;6188307;23;20028;-75
2022/04/18 15:46:42;;;;;;;2.35;1.10;;;;;;;;;;6177343;23;20033;-75
2022/04/18 15:49:14;;;;;;;2.60;2.40;;;;;;;;;;6176788;23;20024;-75
2022/04/18 15:51:44;;;;;;;1.00;0.90;;;;;;;;;;6188187;23;20024;-75
2022/04/18 15:54:13;;;;;;;1.50;0.93;;;;;;;;;;6150497;23;20017;-81
2022/04/18 15:56:44;;;;;;;0.80;0.80;;;;;;;;;;6178029;23;20013;-85
2022/04/18 15:59:14;;;;;;;1.13;0.90;;;;;;;;;;6178447;23;20021;-86
2022/04/18 16:01:43;;;;;;;1.13;0.82;;;;;;;;;;6127608;23;20028;-85
2022/04/18 16:04:13;;;;;;;1.13;1.13;;;;;;;;;;6127670;23;20021;-87
2022/04/18 16:06:44;;;;;;;1.40;1.00;;;;;;;;;;6153428;23;20025;-87